Time;durP1;ratioP1;P1;durP2;ratioP2;P2;SDS_P1;SDS_P2;PMS_P1;PMS_P2;Temp;Humidity;BMP_temperature;BMP_pressure;BME280_temperature;BME280_humidity;BME280_pressure;Samples;Min_cycle;Max_cycle;Signal;HPM_P1;HPM_P2
2023/01/16 00:02:00;;;;;;;0.80;0.80;;;1.70;99.90;;;;;;5081159;28;20029;-35
2023/01/16 00:04:27;;;;;;;1.67;0.90;;;1.80;99.90;;;;;;5057066;28;20074;-30
2023/01/16 00:06:53;;;;;;;0.70;0.70;;;1.80;99.90;;;;;;5081686;28;20043;-30
2023/01/16 00:09:19;;;;;;;1.10;1.10;;;1.80;99.90;;;;;;5073737;28;20041;-32
2023/01/16 00:11:44;;;;;;;1.77;0.85;;;1.80;99.90;;;;;;5071044;28;20030;-31
2023/01/16 00:14:10;;;;;;;1.38;0.90;;;1.80;99.90;;;;;;5088852;28;20035;-31
2023/01/16 00:16:36;;;;;;;0.68;0.68;;;1.80;99.90;;;;;;5085986;28;20020;-31
2023/01/16 00:19:02;;;;;;;0.80;0.80;;;1.90;99.90;;;;;;5079779;28;20071;-30
2023/01/16 00:21:27;;;;;;;0.93;0.90;;;1.90;99.90;;;;;;5073571;28;20111;-33
2023/01/16 00:23:54;;;;;;;0.80;0.80;;;1.90;99.90;;;;;;5087735;28;20461;-33
2023/01/16 00:26:21;;;;;;;0.70;0.70;;;1.90;99.90;;;;;;5092087;28;20491;-30
2023/01/16 00:28:46;;;;;;;1.38;1.27;;;1.90;99.90;;;;;;5086667;28;20376;-31
2023/01/16 00:31:12;;;;;;;1.00;1.00;;;1.90;99.90;;;;;;5084239;28;20520;-30
2023/01/16 00:33:38;;;;;;;0.80;0.80;;;1.90;99.90;;;;;;5091783;28;20071;-32
2023/01/16 00:36:04;;;;;;;2.35;1.80;;;1.90;99.90;;;;;;5078707;28;20020;-30
2023/01/16 00:38:29;;;;;;;3.78;0.90;;;1.90;99.90;;;;;;5093800;28;20035;-30
2023/01/16 00:40:55;;;;;;;0.60;0.60;;;1.90;99.90;;;;;;5084011;28;20147;-30
2023/01/16 00:43:21;;;;;;;1.88;1.00;;;1.90;99.90;;;;;;5071017;28;20032;-31
2023/01/16 00:45:47;;;;;;;0.85;0.85;;;1.80;99.90;;;;;;5088898;28;20063;-31
2023/01/16 00:48:13;;;;;;;1.02;0.90;;;1.80;99.90;;;;;;5093357;28;20055;-30
2023/01/16 00:50:39;;;;;;;1.15;1.00;;;1.80;99.90;;;;;;5055371;28;20042;-30
2023/01/16 00:53:04;;;;;;;1.65;1.35;;;1.80;99.90;;;;;;5087537;28;20036;-29
2023/01/16 00:55:33;;;;;;;1.95;0.82;;;1.80;99.90;;;;;;5082731;28;20465;-29
2023/01/16 00:57:58;;;;;;;1.50;1.02;;;1.80;99.90;;;;;;5082394;28;20028;-30
2023/01/16 01:00:25;;;;;;;0.90;0.90;;;1.80;99.90;;;;;;5066089;28;20080;-33
2023/01/16 01:02:50;;;;;;;1.13;0.82;;;1.80;99.90;;;;;;5091911;28;20023;-30
2023/01/16 01:05:16;;;;;;;1.73;1.00;;;1.80;99.90;;;;;;5082969;28;20377;-31
2023/01/16 01:07:42;;;;;;;0.95;0.95;;;1.80;99.90;;;;;;5077893;28;20072;-32
2023/01/16 01:10:09;;;;;;;1.10;1.02;;;1.80;99.90;;;;;;5055951;28;20517;-30
2023/01/16 01:12:35;;;;;;;2.80;1.10;;;1.80;99.90;;;;;;5064089;28;20036;-32
2023/01/16 01:15:00;;;;;;;2.97;1.00;;;1.70;99.90;;;;;;5070624;28;20034;-31
2023/01/16 01:17:26;;;;;;;1.00;1.00;;;1.80;99.90;;;;;;5069133;28;20029;-29
2023/01/16 01:19:51;;;;;;;1.60;1.00;;;1.80;99.90;;;;;;5063961;28;20059;-30
2023/01/16 01:22:17;;;;;;;2.65;1.10;;;1.80;99.90;;;;;;5061284;28;20560;-30
2023/01/16 01:24:47;;;;;;;1.05;1.05;;;1.70;99.90;;;;;;5067451;28;20036;-30
2023/01/16 01:27:12;;;;;;;0.93;0.93;;;1.70;99.90;;;;;;5046028;28;20124;-33
2023/01/16 01:29:38;;;;;;;1.00;0.90;;;1.70;99.90;;;;;;5073142;28;20128;-30
2023/01/16 01:32:05;;;;;;;0.73;0.73;;;1.80;99.90;;;;;;5065546;28;20400;-31
2023/01/16 01:34:33;;;;;;;0.93;0.80;;;1.80;99.90;;;;;;5063591;28;20362;-31
2023/01/16 01:37:03;;;;;;;0.95;0.95;;;1.80;99.90;;;;;;5050388;28;20050;-31
2023/01/16 01:39:29;;;;;;;3.85;1.30;;;1.80;99.90;;;;;;5038953;28;20040;-31
2023/01/16 01:44:54;;;;;;;0.90;0.90;;;1.80;99.90;;;;;;5072218;28;20122;-33
2023/01/16 01:47:25;;;;;;;0.80;0.80;;;1.80;99.90;;;;;;5069940;28;20036;-31
2023/01/16 01:49:52;;;;;;;1.10;1.00;;;1.80;99.90;;;;;;5067212;28;20020;-32
2023/01/16 01:52:20;;;;;;;0.80;0.80;;;1.70;99.90;;;;;;5063166;28;20548;-30
2023/01/16 01:54:52;;;;;;;1.00;1.00;;;1.80;99.90;;;;;;5066039;28;20385;-35
2023/01/16 01:57:26;;;;;;;0.88;0.88;;;1.90;99.90;;;;;;5070344;28;20024;-30
2023/01/16 02:00:00;;;;;;;0.93;0.93;;;1.90;99.90;;;;;;5062974;28;20074;-30
2023/01/16 02:02:31;;;;;;;0.98;0.90;;;1.90;99.90;;;;;;5069196;28;20166;-32
2023/01/16 02:04:57;;;;;;;3.22;1.25;;;2.10;99.90;;;;;;5065638;28;20017;-32
2023/01/16 02:07:26;;;;;;;1.20;1.20;;;2.10;99.90;;;;;;5070036;28;20036;-34
2023/01/16 02:09:55;;;;;;;;;;;2.20;99.90;;;;;;5075690;28;20481;-32
2023/01/16 02:12:21;;;;;;;0.82;0.82;;;2.30;99.90;;;;;;5068159;28;19916;-31
2023/01/16 02:14:48;;;;;;;1.00;1.00;;;2.20;99.90;;;;;;5074235;28;20077;-31
2023/01/16 02:20:12;;;;;;;0.75;0.75;;;2.40;99.90;;;;;;5096003;28;20127;-32
2023/01/16 02:23:02;;;;;;;0.85;0.82;;;2.50;99.90;;;;;;5088331;28;20650;-34
2023/01/16 02:25:57;;;;;;;2.97;0.90;;;2.70;99.90;;;;;;5089465;28;20203;-31
2023/01/16 02:28:53;;;;;;;4.05;1.00;;;2.80;99.90;;;;;;5090614;28;20024;-32
2023/01/16 02:31:42;;;;;;;0.93;0.88;;;2.90;99.90;;;;;;5088036;28;20074;-34
2023/01/16 02:34:40;;;;;;;0.80;0.80;;;2.90;99.90;;;;;;5075545;28;20028;-34
2023/01/16 02:37:30;;;;;;;0.70;0.70;;;2.90;99.90;;;;;;5086589;28;20481;-31
2023/01/16 02:40:15;;;;;;;1.77;1.00;;;2.90;99.90;;;;;;5095912;28;20032;-33
2023/01/16 02:42:46;;;;;;;0.70;0.70;;;2.90;99.90;;;;;;5095753;28;20050;-32
2023/01/16 02:45:17;;;;;;;1.98;0.90;;;2.90;99.90;;;;;;5094163;28;20497;-31
2023/01/16 02:47:59;;;;;;;0.63;0.63;;;2.90;99.90;;;;;;5066072;28;20165;-31
2023/01/16 02:50:36;;;;;;;0.90;0.90;;;2.90;99.90;;;;;;5094699;28;20069;-32
2023/01/16 02:53:22;;;;;;;1.10;1.00;;;2.80;99.90;;;;;;5090008;28;20056;-31
2023/01/16 02:56:07;;;;;;;0.82;0.82;;;2.70;99.90;;;;;;5073731;28;20028;-30
2023/01/16 02:58:35;;;;;;;1.25;1.05;;;2.70;99.90;;;;;;5077244;28;20028;-33
2023/01/16 03:01:00;;;;;;;1.37;1.27;;;2.60;99.90;;;;;;5098464;28;20071;-32
2023/01/16 03:03:39;;;;;;;0.70;0.70;;;2.60;99.90;;;;;;5090245;28;20486;-32
2023/01/16 03:06:28;;;;;;;0.70;0.70;;;2.40;99.90;;;;;;5093260;28;20028;-32
2023/01/16 03:09:24;;;;;;;0.80;0.80;;;2.50;99.90;;;;;;5074195;28;20044;-32
2023/01/16 03:12:06;;;;;;;0.75;0.75;;;2.50;99.90;;;;;;5088984;28;20177;-35
2023/01/16 03:14:44;;;;;;;0.90;0.90;;;2.50;99.90;;;;;;5096122;28;20039;-32
2023/01/16 03:17:31;;;;;;;1.10;0.80;;;2.50;99.90;;;;;;5093253;28;20051;-35
2023/01/16 03:20:25;;;;;;;0.80;0.80;;;2.50;99.90;;;;;;5096782;28;20089;-34
2023/01/16 03:23:14;;;;;;;0.75;0.75;;;2.40;99.90;;;;;;5066330;28;20120;-32
2023/01/16 03:25:54;;;;;;;1.17;1.17;;;2.50;99.90;;;;;;5076243;28;20028;-32
2023/01/16 03:28:28;;;;;;;0.68;0.68;;;2.50;99.90;;;;;;5097881;28;20109;-31
2023/01/16 03:31:22;;;;;;;2.55;1.15;;;2.50;99.90;;;;;;5094248;28;20027;-34
2023/01/16 03:34:08;;;;;;;0.93;0.90;;;2.50;99.90;;;;;;5089351;28;20577;-33
2023/01/16 03:36:55;;;;;;;0.75;0.75;;;2.50;99.90;;;;;;5075083;28;20013;-32
2023/01/16 03:39:33;;;;;;;2.03;0.90;;;2.60;99.90;;;;;;5093634;28;20044;-34
2023/01/16 03:42:05;;;;;;;1.13;1.10;;;2.60;99.90;;;;;;5092613;28;20074;-33
2023/01/16 03:44:37;;;;;;;1.45;0.85;;;2.60;99.90;;;;;;5094191;28;20436;-31
2023/01/16 03:47:08;;;;;;;0.90;0.90;;;2.60;99.90;;;;;;5080508;28;20042;-31
2023/01/16 03:49:39;;;;;;;1.63;0.90;;;2.60;99.90;;;;;;5090378;28;20052;-33
2023/01/16 03:52:08;;;;;;;0.70;0.70;;;2.50;99.90;;;;;;5093953;28;20024;-30
2023/01/16 03:54:50;;;;;;;;;;;2.50;99.90;;;;;;5093323;28;20503;-33
2023/01/16 03:57:16;;;;;;;1.40;0.80;;;2.60;99.90;;;;;;5094976;28;19915;-33
2023/01/16 03:59:44;;;;;;;0.80;0.80;;;2.60;99.90;;;;;;5094009;28;20024;-32
2023/01/16 04:02:32;;;;;;;1.13;1.02;;;2.50;99.90;;;;;;5092833;28;20081;-33
2023/01/16 04:05:02;;;;;;;;;;;2.50;99.90;;;;;;5092429;28;20532;-31
2023/01/16 04:07:43;;;;;;;0.70;0.70;;;2.40;99.90;;;;;;5091326;28;19920;-34
2023/01/16 04:10:17;;;;;;;0.75;0.75;;;2.50;99.90;;;;;;5081841;28;20050;-33
2023/01/16 04:12:49;;;;;;;0.70;0.70;;;2.40;99.90;;;;;;5089429;28;20027;-37
2023/01/16 04:15:17;;;;;;;2.38;0.90;;;2.50;99.90;;;;;;5095694;28;20067;-31
2023/01/16 04:17:43;;;;;;;2.90;1.10;;;2.50;99.90;;;;;;5091272;28;20028;-33
2023/01/16 04:20:09;;;;;;;1.40;1.30;;;2.50;99.90;;;;;;5069744;28;20797;-32
2023/01/16 04:22:35;;;;;;;0.70;0.70;;;2.50;99.90;;;;;;5083303;28;20028;-33
2023/01/16 04:25:05;;;;;;;3.03;0.93;;;2.50;99.90;;;;;;5085578;28;20032;-35
2023/01/16 04:27:31;;;;;;;0.80;0.80;;;2.50;99.90;;;;;;5083927;28;20028;-31
2023/01/16 04:29:56;;;;;;;0.90;0.90;;;2.30;99.90;;;;;;5089785;28;20100;-33
2023/01/16 04:32:22;;;;;;;0.80;0.80;;;2.20;99.90;;;;;;5088987;28;20035;-33
2023/01/16 04:34:48;;;;;;;1.10;1.10;;;2.10;99.90;;;;;;5088893;28;20540;-31
2023/01/16 04:37:16;;;;;;;0.85;0.85;;;2.10;99.90;;;;;;5087381;28;20012;-32
2023/01/16 04:39:42;;;;;;;0.82;0.82;;;1.90;99.90;;;;;;5086617;28;20102;-32
2023/01/16 04:42:08;;;;;;;0.90;0.90;;;1.90;99.90;;;;;;5092024;28;20032;-33
2023/01/16 04:44:34;;;;;;;1.42;0.90;;;1.80;99.90;;;;;;5091261;28;20103;-32
2023/01/16 04:47:00;;;;;;;1.30;1.27;;;1.80;99.90;;;;;;5089418;28;20433;-32
2023/01/16 04:49:25;;;;;;;0.77;0.77;;;1.60;99.90;;;;;;5090588;28;20086;-32
2023/01/16 04:51:51;;;;;;;0.80;0.80;;;1.60;99.90;;;;;;5073436;28;20040;-32
2023/01/16 04:54:19;;;;;;;0.88;0.88;;;1.60;99.90;;;;;;5088415;28;20035;-34
2023/01/16 04:56:44;;;;;;;0.60;0.60;;;1.60;99.90;;;;;;5084704;28;20024;-31
2023/01/16 04:59:12;;;;;;;0.88;0.88;;;1.50;99.90;;;;;;5084553;28;20473;-34
2023/01/16 05:01:38;;;;;;;1.00;1.00;;;1.50;99.90;;;;;;5088439;28;20105;-31
2023/01/16 05:04:05;;;;;;;0.73;0.73;;;1.50;99.90;;;;;;5090250;28;20027;-33
2023/01/16 05:06:32;;;;;;;0.60;0.60;;;1.50;99.90;;;;;;5066776;28;20028;-32
2023/01/16 05:08:58;;;;;;;1.00;1.00;;;1.40;99.90;;;;;;5084395;28;20487;-34
2023/01/16 05:11:23;;;;;;;1.30;1.30;;;1.40;99.90;;;;;;5070518;28;20032;-32
2023/01/16 05:13:49;;;;;;;1.65;0.98;;;1.40;99.90;;;;;;5079626;28;20031;-31
2023/01/16 05:16:15;;;;;;;0.80;0.80;;;1.40;99.90;;;;;;5087391;28;20034;-31
2023/01/16 05:18:40;;;;;;;0.82;0.82;;;1.40;99.90;;;;;;5086735;28;20036;-33
2023/01/16 05:21:06;;;;;;;0.90;0.90;;;1.30;99.90;;;;;;5087803;28;20060;-32
2023/01/16 05:23:37;;;;;;;0.88;0.88;;;1.20;99.90;;;;;;5084976;28;20036;-32
2023/01/16 05:26:03;;;;;;;0.60;0.60;;;1.10;99.90;;;;;;5091082;28;20032;-31
2023/01/16 05:28:29;;;;;;;1.13;1.00;;;1.00;99.90;;;;;;5065386;28;20032;-31
2023/01/16 05:30:56;;;;;;;0.88;0.88;;;0.90;99.90;;;;;;5092942;28;20099;-31
2023/01/16 05:33:22;;;;;;;0.93;0.93;;;0.90;99.90;;;;;;5084087;28;20025;-33
2023/01/16 05:35:48;;;;;;;0.90;0.90;;;1.00;99.90;;;;;;5092955;28;20111;-33
2023/01/16 05:38:14;;;;;;;1.42;1.42;;;1.00;99.90;;;;;;5089344;28;20116;-31
2023/01/16 05:40:41;;;;;;;0.82;0.82;;;1.00;99.90;;;;;;5082717;28;20035;-30
2023/01/16 05:43:07;;;;;;;0.80;0.80;;;1.10;99.90;;;;;;5071888;28;20554;-35
2023/01/16 05:45:32;;;;;;;0.70;0.70;;;1.10;99.90;;;;;;5090631;28;20036;-33
2023/01/16 05:47:58;;;;;;;0.80;0.80;;;1.10;99.90;;;;;;5089134;28;20020;-32
2023/01/16 05:50:24;;;;;;;1.00;1.00;;;1.00;99.90;;;;;;5084920;28;20069;-33
2023/01/16 05:52:50;;;;;;;0.80;0.80;;;1.10;99.90;;;;;;5054413;28;20031;-37
2023/01/16 05:55:16;;;;;;;1.15;1.15;;;1.10;99.90;;;;;;5079295;28;20085;-36
2023/01/16 05:57:42;;;;;;;1.48;1.05;;;1.10;99.90;;;;;;5081099;28;20086;-31
2023/01/16 06:00:09;;;;;;;0.80;0.80;;;1.10;99.90;;;;;;5088421;28;20032;-32
2023/01/16 06:02:35;;;;;;;1.00;1.00;;;1.10;99.90;;;;;;5094957;28;20044;-33
2023/01/16 06:05:01;;;;;;;1.00;1.00;;;1.00;99.90;;;;;;5096783;28;20495;-32
2023/01/16 06:07:26;;;;;;;0.90;0.90;;;1.00;99.90;;;;;;5089724;28;20047;-32
2023/01/16 06:09:52;;;;;;;0.95;0.95;;;0.90;99.90;;;;;;5085546;28;20558;-32
2023/01/16 06:12:19;;;;;;;0.80;0.80;;;0.90;99.90;;;;;;5071140;28;20492;-34
2023/01/16 06:14:45;;;;;;;1.30;1.00;;;0.90;99.90;;;;;;5088304;28;20520;-34
2023/01/16 06:17:14;;;;;;;0.90;0.90;;;0.80;99.90;;;;;;5089621;28;20042;-31
2023/01/16 06:19:43;;;;;;;1.23;1.23;;;0.80;99.90;;;;;;5086160;28;20032;-31
2023/01/16 06:22:09;;;;;;;4.22;1.40;;;0.80;99.90;;;;;;5084854;28;20072;-35
2023/01/16 06:24:35;;;;;;;2.78;1.33;;;0.70;99.90;;;;;;5090019;28;20051;-35
2023/01/16 06:27:00;;;;;;;1.13;0.93;;;0.70;99.90;;;;;;5085556;28;20028;-32
2023/01/16 06:29:26;;;;;;;1.00;1.00;;;0.70;99.90;;;;;;5077451;28;20032;-31
2023/01/16 06:31:51;;;;;;;1.13;0.90;;;0.70;99.90;;;;;;5091519;28;20443;-32
2023/01/16 06:34:17;;;;;;;1.33;1.00;;;0.70;99.90;;;;;;5073937;28;20553;-35
2023/01/16 06:36:45;;;;;;;2.35;1.20;;;0.60;99.90;;;;;;5081287;28;20103;-32
2023/01/16 06:39:11;;;;;;;2.13;1.40;;;0.50;99.90;;;;;;5073121;28;20131;-33
2023/01/16 06:41:37;;;;;;;0.95;0.95;;;0.50;99.90;;;;;;5087138;28;20587;-31
2023/01/16 06:44:03;;;;;;;1.33;1.13;;;0.50;99.90;;;;;;5089556;28;20025;-32
2023/01/16 06:46:29;;;;;;;0.90;0.90;;;0.60;99.90;;;;;;5076810;28;20040;-31
2023/01/16 06:48:55;;;;;;;1.25;1.10;;;0.50;99.90;;;;;;5076755;28;20477;-36
2023/01/16 06:51:21;;;;;;;1.48;1.15;;;0.50;99.90;;;;;;5077249;28;20028;-34
2023/01/16 06:53:46;;;;;;;1.40;1.27;;;0.40;99.90;;;;;;5090946;28;20362;-31
2023/01/16 06:56:12;;;;;;;1.45;1.35;;;0.40;99.90;;;;;;5087549;28;20029;-35
2023/01/16 06:58:38;;;;;;;1.33;1.20;;;0.40;99.90;;;;;;5087567;28;20106;-31
2023/01/16 07:01:04;;;;;;;2.28;1.48;;;0.40;99.90;;;;;;5071677;28;20036;-32
2023/01/16 07:03:30;;;;;;;1.00;1.00;;;0.30;99.90;;;;;;5077402;28;20036;-32
2023/01/16 07:05:56;;;;;;;1.48;1.38;;;0.30;99.90;;;;;;5056337;28;20275;-33
2023/01/16 07:08:22;;;;;;;1.58;1.48;;;0.30;99.90;;;;;;5087526;28;20048;-34
2023/01/16 07:10:47;;;;;;;1.45;1.30;;;0.30;99.90;;;;;;5070559;28;20036;-36
2023/01/16 07:13:13;;;;;;;0.95;0.95;;;0.20;99.90;;;;;;5088557;28;20392;-31
2023/01/16 07:24:06;;;;;;;1.67;1.45;;;0.00;99.90;;;;;;5090333;28;20149;-32
2023/01/16 07:26:34;;;;;;;1.73;1.20;;;0.00;99.90;;;;;;5089546;28;20036;-34
2023/01/16 07:29:02;;;;;;;1.45;1.35;;;0.00;99.90;;;;;;5068892;28;20059;-32
2023/01/16 07:31:29;;;;;;;1.70;1.60;;;-0.10;99.90;;;;;;5079702;28;20020;-34
2023/01/16 07:33:55;;;;;;;2.97;2.20;;;0.00;99.90;;;;;;5086412;28;20097;-34
2023/01/16 07:36:21;;;;;;;0.82;0.82;;;0.10;99.90;;;;;;5093298;28;20031;-32
2023/01/16 07:38:47;;;;;;;1.25;1.25;;;0.10;99.90;;;;;;5094792;28;20078;-32
2023/01/16 07:41:13;;;;;;;0.95;0.95;;;0.20;99.90;;;;;;5095545;28;20043;-32
2023/01/16 07:43:39;;;;;;;1.73;1.60;;;0.30;99.90;;;;;;5089980;28;20027;-31
2023/01/16 07:46:05;;;;;;;1.60;1.50;;;0.30;99.90;;;;;;5094836;28;20381;-32
2023/01/16 07:48:31;;;;;;;1.17;1.10;;;0.40;99.90;;;;;;5094128;28;20085;-34
2023/01/16 07:50:58;;;;;;;1.40;1.40;;;0.40;99.90;;;;;;5089776;28;20063;-31
2023/01/16 07:53:26;;;;;;;2.65;1.63;;;0.50;99.90;;;;;;5093551;28;20055;-33
2023/01/16 07:55:57;;;;;;;2.45;1.40;;;0.50;99.90;;;;;;5095227;28;20051;-35
2023/01/16 07:58:24;;;;;;;1.08;1.00;;;0.50;99.90;;;;;;5083309;28;20032;-32
2023/01/16 08:00:52;;;;;;;1.48;1.38;;;0.60;99.90;;;;;;5079127;28;20477;-36
2023/01/16 08:03:18;;;;;;;4.07;1.58;;;0.60;99.90;;;;;;5091372;28;20035;-32
2023/01/16 08:05:44;;;;;;;1.13;1.10;;;0.60;99.90;;;;;;5082690;28;20110;-32
2023/01/16 08:08:12;;;;;;;1.10;1.10;;;0.70;99.90;;;;;;5089022;28;20134;-32
2023/01/16 08:10:38;;;;;;;1.00;1.00;;;0.70;99.90;;;;;;5082715;28;20056;-35
2023/01/16 08:13:04;;;;;;;3.03;2.78;;;0.70;99.90;;;;;;5086042;28;20032;-31
2023/01/16 08:15:30;;;;;;;1.33;1.30;;;0.80;99.90;;;;;;5093872;28;20371;-32
2023/01/16 08:17:55;;;;;;;1.30;1.20;;;0.80;99.90;;;;;;5081189;28;20028;-32
2023/01/16 08:20:22;;;;;;;1.88;1.55;;;0.90;99.90;;;;;;5082013;28;20040;-32
2023/01/16 08:22:52;;;;;;;1.70;1.60;;;1.00;99.90;;;;;;5085369;28;20036;-33
2023/01/16 08:25:20;;;;;;;1.70;1.58;;;1.00;99.90;;;;;;5087316;28;20031;-32
2023/01/16 08:27:46;;;;;;;4.23;1.80;;;1.10;99.90;;;;;;5085755;28;20400;-31
2023/01/16 08:30:13;;;;;;;1.25;1.15;;;1.20;99.90;;;;;;5084783;28;20328;-32
2023/01/16 08:32:39;;;;;;;1.70;1.60;;;1.20;99.90;;;;;;5088695;28;20059;-32
2023/01/16 08:35:05;;;;;;;1.52;1.42;;;1.30;99.90;;;;;;5083617;28;20464;-31
2023/01/16 08:37:32;;;;;;;1.40;1.30;;;1.40;99.90;;;;;;5089884;28;20051;-31
2023/01/16 08:39:58;;;;;;;2.58;1.23;;;1.50;99.90;;;;;;5088359;28;20498;-34
2023/01/16 08:53:29;;;;;;;1.83;1.73;;;1.90;99.90;;;;;;5085797;28;20027;-32
2023/01/16 08:55:54;;;;;;;1.40;1.30;;;1.90;99.90;;;;;;5074100;28;20032;-36
2023/01/16 08:58:21;;;;;;;1.50;1.40;;;2.00;99.90;;;;;;5083240;28;20031;-31
2023/01/16 09:00:48;;;;;;;1.88;1.42;;;2.10;99.90;;;;;;5093511;28;20405;-33
2023/01/16 09:03:16;;;;;;;1.20;1.20;;;2.30;99.90;;;;;;5092167;28;20081;-31
2023/01/16 09:05:42;;;;;;;0.77;0.77;;;2.40;99.90;;;;;;5090158;28;20036;-35
2023/01/16 09:08:07;;;;;;;2.42;1.60;;;2.50;99.90;;;;;;5084223;28;20462;-34
2023/01/16 09:10:33;;;;;;;1.38;1.27;;;2.60;99.90;;;;;;5074625;28;20118;-35
2023/01/16 09:15:42;;;;;;;1.00;1.00;;;2.80;99.90;;;;;;5085573;28;21065;-32
2023/01/16 09:18:08;;;;;;;1.50;1.20;;;2.90;99.90;;;;;;5080175;28;20401;-31
2023/01/16 09:20:34;;;;;;;1.00;1.00;;;3.00;99.90;;;;;;5090769;28;20146;-31
2023/01/16 09:23:01;;;;;;;1.48;1.05;;;3.10;99.90;;;;;;5090060;28;20029;-33
2023/01/16 09:25:28;;;;;;;1.20;1.20;;;3.20;99.90;;;;;;5089946;28;20059;-35
2023/01/16 09:27:54;;;;;;;2.05;1.10;;;3.20;99.80;;;;;;5094078;28;20032;-31
2023/01/16 09:30:20;;;;;;;1.00;1.00;;;3.20;99.90;;;;;;5094157;28;20070;-31
2023/01/16 09:32:46;;;;;;;1.38;1.00;;;3.20;99.90;;;;;;5092815;28;20024;-31
2023/01/16 09:35:12;;;;;;;2.00;1.20;;;3.30;99.10;;;;;;5095640;28;20485;-32
2023/01/16 09:37:40;;;;;;;2.95;1.10;;;3.40;99.90;;;;;;5094475;28;20028;-32
2023/01/16 09:40:13;;;;;;;1.35;1.17;;;3.40;99.90;;;;;;5088462;28;20023;-33
2023/01/16 09:45:51;;;;;;;1.30;1.20;;;3.60;98.00;;;;;;5086221;28;20039;-31
2023/01/16 09:48:32;;;;;;;1.42;1.00;;;3.50;98.20;;;;;;5071303;28;20021;-32
2023/01/16 09:51:05;;;;;;;0.70;0.70;;;3.50;98.00;;;;;;5082570;28;20016;-32
2023/01/16 09:59:37;;;;;;;3.00;1.20;;;3.70;96.80;;;;;;5094871;28;20090;-33
2023/01/16 10:02:08;;;;;;;0.90;0.90;;;3.80;97.80;;;;;;5091706;28;20515;-32
2023/01/16 10:04:36;;;;;;;2.15;1.00;;;3.80;96.50;;;;;;5087886;28;20035;-31
2023/01/16 10:07:33;;;;;;;1.20;1.02;;;3.80;96.50;;;;;;5089220;28;20120;-32
2023/01/16 10:10:07;;;;;;;1.30;1.20;;;3.70;96.90;;;;;;5089929;28;20123;-32
2023/01/16 10:12:36;;;;;;;1.15;1.10;;;3.70;97.00;;;;;;5101365;28;20027;-34
2023/01/16 10:15:04;;;;;;;1.45;1.35;;;3.80;97.10;;;;;;5088426;28;20494;-31
2023/01/16 10:17:54;;;;;;;1.23;1.10;;;3.90;98.40;;;;;;5085642;28;20024;-31
2023/01/16 10:20:31;;;;;;;2.60;1.08;;;4.00;97.80;;;;;;5087829;28;20198;-31
2023/01/16 10:23:25;;;;;;;3.58;1.13;;;3.90;97.50;;;;;;5091172;28;20040;-33
2023/01/16 10:26:18;;;;;;;1.75;1.20;;;4.00;96.60;;;;;;5095017;28;20042;-32
2023/01/16 10:29:09;;;;;;;1.40;1.30;;;4.00;96.40;;;;;;5098052;28;20500;-33
2023/01/16 10:31:57;;;;;;;1.27;1.27;;;4.10;97.70;;;;;;5089468;28;20527;-31
2023/01/16 10:34:54;;;;;;;2.60;1.65;;;4.10;95.70;;;;;;5097926;28;20073;-32
2023/01/16 10:37:22;;;;;;;1.00;1.00;;;4.10;96.40;;;;;;5082738;28;20056;-31
2023/01/16 10:39:50;;;;;;;1.50;1.10;;;4.20;96.90;;;;;;5096450;28;20439;-31
2023/01/16 10:50:59;;;;;;;1.10;1.00;;;4.10;96.40;;;;;;5091093;28;20454;-31
2023/01/16 10:53:25;;;;;;;1.88;1.42;;;4.10;96.60;;;;;;5093094;28;20031;-34
2023/01/16 10:55:52;;;;;;;1.13;1.10;;;4.10;98.20;;;;;;5074957;28;20089;-31
2023/01/16 10:58:29;;;;;;;1.10;1.10;;;4.20;97.20;;;;;;5090012;28;20035;-32
2023/01/16 11:01:00;;;;;;;1.52;1.40;;;4.20;98.00;;;;;;5087001;28;20072;-30
2023/01/16 11:03:41;;;;;;;1.20;1.20;;;4.20;96.90;;;;;;5094014;28;20043;-31
2023/01/16 11:06:15;;;;;;;1.67;1.10;;;4.30;98.00;;;;;;5088372;28;20685;-32
2023/01/16 11:08:43;;;;;;;1.00;1.00;;;4.30;96.50;;;;;;5092901;28;20040;-32
2023/01/16 11:18:27;;;;;;;1.08;1.08;;;4.40;97.60;;;;;;5084065;28;20020;-31
2023/01/16 11:19:30;;;;;;;1.25;1.20;;;4.40;97.20;;;;;;5094256;28;20084;-33
2023/01/16 11:22:11;;;;;;;1.20;1.20;;;4.30;96.50;;;;;;5091278;28;20548;-33
2023/01/16 11:24:39;;;;;;;1.40;1.15;;;4.40;97.30;;;;;;5088721;28;20020;-33
2023/01/16 11:27:12;;;;;;;2.22;1.20;;;4.30;98.70;;;;;;5084086;28;20534;-31
2023/01/16 11:29:39;;;;;;;1.42;1.17;;;4.40;96.10;;;;;;5071977;28;20485;-33
2023/01/16 11:32:11;;;;;;;1.27;1.17;;;4.40;97.10;;;;;;5090983;28;20118;-31
2023/01/16 11:34:43;;;;;;;1.25;1.15;;;4.40;97.50;;;;;;5086320;28;20020;-31
2023/01/16 11:37:11;;;;;;;1.73;1.63;;;4.40;96.30;;;;;;5086677;28;20088;-32
2023/01/16 11:39:38;;;;;;;1.40;1.20;;;4.50;98.00;;;;;;5092620;28;20405;-32
2023/01/16 11:46:02;;;;;;;1.40;1.30;;;4.40;96.50;;;;;;5086018;28;20032;-31
2023/01/16 11:47:43;;;;;;;1.77;1.58;;;4.50;95.50;;;;;;5088294;28;20574;-34
2023/01/16 11:50:32;;;;;;;2.13;1.40;;;4.60;96.20;;;;;;5088025;28;20024;-32
2023/01/16 11:52:58;;;;;;;1.90;1.15;;;4.70;97.60;;;;;;5097635;28;20074;-32
2023/01/16 11:55:42;;;;;;;1.25;1.15;;;4.80;99.30;;;;;;5087358;28;20059;-31
2023/01/16 11:58:35;;;;;;;2.03;1.20;;;4.80;97.90;;;;;;5084770;28;20556;-33
2023/01/16 12:01:20;;;;;;;1.52;1.42;;;4.80;96.70;;;;;;5091171;28;20528;-36
2023/01/16 12:04:15;;;;;;;1.70;1.60;;;4.90;94.60;;;;;;5088297;28;20626;-31
2023/01/16 12:06:56;;;;;;;1.95;1.63;;;4.90;96.90;;;;;;5079108;28;20037;-30
2023/01/16 12:09:57;;;;;;;2.72;1.60;;;4.90;96.50;;;;;;5082447;28;20426;-31
2023/01/16 12:15:30;;;;;;;0.95;0.95;;;4.90;95.00;;;;;;5086805;28;20124;-32
2023/01/16 12:17:56;;;;;;;1.20;0.90;;;4.80;95.90;;;;;;5086569;28;20127;-33
2023/01/16 12:20:58;;;;;;;0.70;0.70;;;4.80;98.00;;;;;;5088255;28;20169;-31
2023/01/16 12:23:27;;;;;;;0.80;0.80;;;4.70;99.80;;;;;;5087584;28;20111;-31
2023/01/16 12:26:13;;;;;;;2.45;1.00;;;4.70;98.70;;;;;;5087812;28;20059;-31
2023/01/16 12:28:47;;;;;;;0.93;0.93;;;4.70;99.90;;;;;;5091285;28;20032;-32
2023/01/16 12:31:35;;;;;;;5.97;1.00;;;4.60;98.30;;;;;;5078463;28;20036;-35
2023/01/16 12:34:06;;;;;;;1.13;1.13;;;4.60;99.60;;;;;;5081374;28;20033;-32
2023/01/16 12:36:40;;;;;;;1.05;1.00;;;4.50;98.80;;;;;;5092146;28;20028;-31
2023/01/16 12:39:22;;;;;;;1.45;1.15;;;4.50;99.90;;;;;;5087831;28;20103;-31
2023/01/16 12:45:15;;;;;;;1.13;1.02;;;4.50;99.90;;;;;;5088044;28;20104;-31
2023/01/16 12:48:23;;;;;;;0.55;0.55;;;4.40;99.90;;;;;;5089651;28;20031;-30
2023/01/16 12:51:13;;;;;;;0.70;0.70;;;4.40;99.90;;;;;;5097899;28;20511;-34
2023/01/16 12:54:14;;;;;;;1.13;1.13;;;4.40;99.90;;;;;;5090221;28;20511;-34
2023/01/16 12:56:59;;;;;;;1.15;1.02;;;4.50;99.90;;;;;;4990776;28;20038;-32
2023/01/16 12:59:34;;;;;;;1.00;1.00;;;4.50;99.90;;;;;;5089228;28;20046;-31
2023/01/16 13:02:21;;;;;;;1.25;1.17;;;4.60;99.90;;;;;;5062564;28;20039;-30
2023/01/16 13:04:55;;;;;;;1.25;1.15;;;4.60;99.10;;;;;;5091378;28;20043;-32
2023/01/16 13:07:24;;;;;;;1.70;1.23;;;4.50;99.30;;;;;;5079866;28;20059;-31
2023/01/16 13:13:20;;;;;;;0.80;0.80;;;4.60;99.50;;;;;;5092102;28;20055;-31
2023/01/16 13:15:35;;;;;;;1.25;1.02;;;4.50;97.10;;;;;;5094770;28;20416;-34
2023/01/16 13:18:17;;;;;;;1.23;1.00;;;4.50;99.10;;;;;;5084772;28;20370;-30
2023/01/16 13:20:46;;;;;;;1.92;1.73;;;4.40;99.50;;;;;;5092409;28;20037;-31
2023/01/16 13:23:27;;;;;;;5.20;1.15;;;4.50;99.90;;;;;;5088009;28;20027;-32
2023/01/16 13:25:59;;;;;;;4.13;1.25;;;4.50;98.20;;;;;;5082904;28;20392;-33
2023/01/16 13:29:06;;;;;;;2.63;1.10;;;4.60;99.90;;;;;;5084668;28;20020;-34
2023/01/16 13:31:38;;;;;;;1.08;1.02;;;4.70;99.90;;;;;;5083737;28;20054;-33
2023/01/16 13:34:30;;;;;;;1.13;1.13;;;4.70;99.90;;;;;;5085246;28;20556;-30
2023/01/16 13:37:15;;;;;;;1.30;1.20;;;4.70;99.90;;;;;;5087982;28;20043;-31
2023/01/16 13:39:55;;;;;;;1.30;1.20;;;4.80;98.90;;;;;;5064747;28;20035;-31
2023/01/16 13:42:24;;;;;;;1.48;1.25;;;4.80;99.90;;;;;;5095516;28;20020;-33
2023/01/16 13:47:47;;;;;;;1.48;1.38;;;4.70;99.90;;;;;;5088265;28;20074;-33
2023/01/16 13:50:24;;;;;;;3.53;2.08;;;4.70;99.90;;;;;;5089138;28;20060;-34
2023/01/16 13:52:53;;;;;;;3.63;2.38;;;4.70;99.90;;;;;;5087613;28;20028;-32
2023/01/16 13:55:32;;;;;;;3.80;2.22;;;4.80;99.50;;;;;;5080583;28;20086;-31
2023/01/16 13:58:15;;;;;;;3.03;1.98;;;4.70;99.50;;;;;;5089707;28;20457;-33
2023/01/16 14:00:42;;;;;;;8.45;3.35;;;4.60;98.80;;;;;;5090640;28;20042;-31
2023/01/16 14:03:26;;;;;;;3.38;2.17;;;4.50;98.20;;;;;;5089035;28;20137;-32
2023/01/16 14:06:17;;;;;;;3.63;1.98;;;4.40;98.50;;;;;;5084591;28;20044;-33
2023/01/16 14:09:11;;;;;;;3.45;2.15;;;4.50;99.90;;;;;;5089914;28;20066;-31
2023/01/16 14:11:56;;;;;;;3.80;1.70;;;4.50;99.30;;;;;;5091583;28;20496;-32
2023/01/16 14:17:10;;;;;;;3.95;2.25;;;4.40;99.10;;;;;;5090850;28;20034;-33
2023/01/16 14:20:01;;;;;;;2.80;2.42;;;4.40;98.30;;;;;;5093399;28;20034;-33
2023/01/16 14:25:02;;;;;;;1.40;1.27;;;4.40;97.30;;;;;;5097335;28;20032;-32
2023/01/16 14:27:43;;;;;;;1.27;1.17;;;4.30;98.20;;;;;;5094288;28;20062;-33
2023/01/16 14:30:19;;;;;;;1.50;1.33;;;4.30;98.30;;;;;;5090482;28;20016;-31
2023/01/16 14:32:56;;;;;;;1.50;1.40;;;4.20;98.80;;;;;;5096342;28;20062;-31
2023/01/16 14:35:31;;;;;;;1.92;1.33;;;4.20;98.70;;;;;;5090910;28;20108;-36